createdAt,value
2024-02-28T00:00:59.042Z,98559.50
2024-02-28T00:03:25.818Z,98563.97
2024-02-28T00:05:52.394Z,98566.22
2024-02-28T00:08:21.273Z,98562.13
2024-02-28T00:10:48.003Z,98554.88
2024-02-28T00:13:16.611Z,98560.09
2024-02-28T00:15:43.316Z,98562.84
2024-02-28T00:18:10.017Z,98560.06
2024-02-28T00:20:36.637Z,98557.22
2024-02-28T00:23:03.239Z,98552.44
2024-02-28T00:25:29.876Z,98559.56
2024-02-28T00:27:56.694Z,98568.56
2024-02-28T00:30:23.339Z,98557.75
2024-02-28T00:32:49.902Z,98559.66
2024-02-28T00:35:16.517Z,98557.16
2024-02-28T00:37:43.096Z,98567.72
2024-02-28T00:40:10.296Z,98565.38
2024-02-28T00:42:36.915Z,98568.78
2024-02-28T00:45:04.097Z,98565.63
2024-02-28T00:47:31.061Z,98568.53
2024-02-28T00:49:57.631Z,98575.22
2024-02-28T00:52:26.217Z,98580.09
2024-02-28T00:54:52.882Z,98586.00
2024-02-28T00:57:19.553Z,98580.91
2024-02-28T00:59:46.309Z,98579.78
2024-02-28T01:02:12.902Z,98580.31
2024-02-28T01:04:41.015Z,98587.88
2024-02-28T01:07:07.694Z,98597.31
2024-02-28T01:09:34.381Z,98600.97
2024-02-28T01:12:02.450Z,98598.47
2024-02-28T01:14:28.981Z,98597.84
2024-02-28T01:16:55.712Z,98595.38
2024-02-28T01:19:22.351Z,98592.41
2024-02-28T01:21:49.055Z,98610.97
2024-02-28T01:24:15.903Z,98611.03
2024-02-28T01:26:42.673Z,98603.88
2024-02-28T01:29:09.267Z,98595.78
2024-02-28T01:31:35.920Z,98599.25
2024-02-28T01:34:02.511Z,98601.84
2024-02-28T01:36:29.105Z,98595.84
2024-02-28T01:38:55.658Z,98607.81
2024-02-28T01:41:22.254Z,98607.06
2024-02-28T01:43:49.110Z,98613.88
2024-02-28T01:46:26.739Z,98609.78
2024-02-28T01:48:55.241Z,98606.91
2024-02-28T01:51:28.160Z,98608.50
2024-02-28T01:53:55.731Z,98608.44
2024-02-28T01:56:24.335Z,98608.31
2024-02-28T01:58:51.178Z,98607.81
2024-02-28T02:01:18.510Z,98611.09
2024-02-28T02:03:51.100Z,98612.91
2024-02-28T02:06:19.242Z,98607.50
2024-02-28T02:08:46.917Z,98613.78
2024-02-28T02:11:16.055Z,98612.44
2024-02-28T02:13:52.646Z,98614.13
2024-02-28T02:16:20.550Z,98617.00
2024-02-28T02:18:48.555Z,98621.63
2024-02-28T02:21:19.039Z,98621.28
2024-02-28T02:23:45.589Z,98621.63
2024-02-28T02:26:12.145Z,98624.97
2024-02-28T02:28:38.644Z,98627.06
2024-02-28T02:31:05.350Z,98620.19
2024-02-28T02:33:31.964Z,98617.75
2024-02-28T02:35:59.075Z,98618.88
2024-02-28T02:38:25.695Z,98634.81
2024-02-28T02:40:52.626Z,98625.69
2024-02-28T02:43:19.381Z,98624.97
2024-02-28T02:45:46.086Z,98632.09
2024-02-28T02:48:12.678Z,98638.06
2024-02-28T02:50:39.206Z,98633.22
2024-02-28T02:53:11.582Z,98632.81
2024-02-28T02:55:38.239Z,98636.53
2024-02-28T02:58:04.907Z,98636.25
2024-02-28T03:00:31.500Z,98628.09
2024-02-28T03:02:58.097Z,98636.81
2024-02-28T03:05:24.605Z,98629.25
2024-02-28T03:07:51.193Z,98640.03
2024-02-28T03:10:17.734Z,98632.91
2024-02-28T03:12:44.305Z,98632.53
2024-02-28T03:15:10.869Z,98637.53
2024-02-28T03:17:37.473Z,98639.31
2024-02-28T03:20:04.408Z,98648.53
2024-02-28T03:22:30.943Z,98643.41
2024-02-28T03:24:57.532Z,98649.94
2024-02-28T03:27:24.168Z,98650.75
2024-02-28T03:29:50.743Z,98650.81
2024-02-28T03:32:17.376Z,98654.25
2024-02-28T03:34:43.930Z,98651.22
2024-02-28T03:37:10.446Z,98651.72
2024-02-28T03:39:37.038Z,98656.63
2024-02-28T03:42:03.880Z,98662.25
2024-02-28T03:44:30.457Z,98674.41
2024-02-28T03:46:57.100Z,98670.88
2024-02-28T03:49:23.636Z,98671.47
2024-02-28T03:51:50.285Z,98677.97
2024-02-28T03:54:17.223Z,98673.59
2024-02-28T03:56:43.812Z,98673.81
2024-02-28T03:59:10.402Z,98674.50
2024-02-28T04:01:37.018Z,98670.88
2024-02-28T04:04:03.808Z,98683.84
2024-02-28T04:06:31.351Z,98681.53
2024-02-28T04:08:57.908Z,98688.09
2024-02-28T04:11:25.162Z,98695.66
2024-02-28T04:13:51.766Z,98696.13
2024-02-28T04:16:18.325Z,98694.69
2024-02-28T04:18:44.953Z,98695.88
2024-02-28T04:21:11.646Z,98700.47
2024-02-28T04:23:39.274Z,98701.16
2024-02-28T04:26:05.835Z,98708.50
2024-02-28T04:28:32.391Z,98699.91
2024-02-28T04:30:59.019Z,98706.25
2024-02-28T04:33:25.685Z,98704.38
2024-02-28T04:35:52.201Z,98720.28
2024-02-28T04:38:18.793Z,98721.78
2024-02-28T04:40:45.695Z,98721.94
2024-02-28T04:43:12.274Z,98733.25
2024-02-28T04:45:38.862Z,98733.97
2024-02-28T04:48:06.146Z,98730.28
2024-02-28T04:50:32.867Z,98734.53
2024-02-28T04:52:59.451Z,98740.44
2024-02-28T04:55:26.038Z,98738.53
2024-02-28T04:57:52.716Z,98737.63
2024-02-28T05:00:19.453Z,98748.09
2024-02-28T05:02:46.023Z,98754.44
2024-02-28T05:05:12.596Z,98754.22
2024-02-28T05:07:39.290Z,98751.38
2024-02-28T05:10:06.583Z,98753.00
2024-02-28T05:12:33.330Z,98741.09
2024-02-28T05:14:59.949Z,98740.28
2024-02-28T05:17:26.548Z,98753.63
2024-02-28T05:19:53.109Z,98748.44
2024-02-28T05:22:19.684Z,98758.09
2024-02-28T05:24:49.428Z,98761.41
2024-02-28T05:27:16.197Z,98755.72
2024-02-28T05:29:43.914Z,98756.31
2024-02-28T05:32:10.691Z,98764.28
2024-02-28T05:34:37.263Z,98759.13
2024-02-28T05:37:03.894Z,98757.81
2024-02-28T05:39:31.955Z,98764.41
2024-02-28T05:41:58.674Z,98767.88
2024-02-28T05:44:25.723Z,98768.00
2024-02-28T05:46:52.310Z,98774.56
2024-02-28T05:49:18.828Z,98779.78
2024-02-28T05:51:45.496Z,98783.22
2024-02-28T05:54:12.074Z,98789.56
2024-02-28T05:56:38.551Z,98788.00
2024-02-28T05:59:05.104Z,98792.47
2024-02-28T06:01:31.707Z,98794.09
2024-02-28T06:03:58.259Z,98787.00
2024-02-28T06:06:24.874Z,98798.94
2024-02-28T06:08:51.414Z,98793.28
2024-02-28T06:11:17.988Z,98796.94
2024-02-28T06:13:44.624Z,98796.59
2024-02-28T06:16:18.736Z,98802.72
2024-02-28T06:18:45.933Z,98810.59
2024-02-28T06:21:14.235Z,98810.00
2024-02-28T06:23:40.848Z,98815.59
2024-02-28T06:26:07.466Z,98822.16
2024-02-28T06:28:33.967Z,98831.22
2024-02-28T06:31:00.671Z,98834.50
2024-02-28T06:33:27.404Z,98846.03
2024-02-28T06:35:53.971Z,98848.59
2024-02-28T06:38:20.477Z,98855.31
2024-02-28T06:40:46.947Z,98859.31
2024-02-28T06:43:13.546Z,98858.63
2024-02-28T06:45:40.110Z,98851.31
2024-02-28T06:48:08.228Z,98862.41
2024-02-28T06:50:34.800Z,98855.56
2024-02-28T06:53:01.332Z,98858.06
2024-02-28T06:55:27.875Z,98868.34
2024-02-28T06:57:54.557Z,98878.25
2024-02-28T07:00:22.247Z,98881.91
2024-02-28T07:02:48.796Z,98878.72
2024-02-28T07:05:15.467Z,98882.59
2024-02-28T07:07:42.097Z,98879.56
2024-02-28T07:10:08.806Z,98874.03
2024-02-28T07:12:35.426Z,98879.44
2024-02-28T07:15:02.030Z,98880.94
2024-02-28T07:17:28.598Z,98874.94
2024-02-28T07:19:55.114Z,98875.28
2024-02-28T07:22:22.355Z,98884.16
2024-02-28T07:24:49.376Z,98878.56
2024-02-28T07:27:17.028Z,98877.28
2024-02-28T07:29:43.630Z,98880.25
2024-02-28T07:32:10.153Z,98884.50
2024-02-28T07:34:36.655Z,98879.31
2024-02-28T07:37:03.619Z,98880.84
2024-02-28T07:39:30.277Z,98874.13
2024-02-28T07:41:57.120Z,98874.00
2024-02-28T07:44:24.084Z,98874.22
2024-02-28T07:46:52.210Z,98874.78
2024-02-28T07:49:19.695Z,98873.66
2024-02-28T07:51:46.795Z,98876.09
2024-02-28T07:54:13.578Z,98876.19
2024-02-28T07:56:40.192Z,98877.06
2024-02-28T07:59:06.750Z,98880.84
2024-02-28T08:01:33.774Z,98882.34
2024-02-28T08:04:01.064Z,98887.22
2024-02-28T08:06:27.866Z,98888.94
2024-02-28T08:08:54.637Z,98886.22
2024-02-28T08:11:21.344Z,98893.94
2024-02-28T08:13:48.086Z,98900.81
2024-02-28T08:16:14.776Z,98901.13
2024-02-28T08:18:41.670Z,98896.78
2024-02-28T08:21:08.311Z,98897.53
2024-02-28T08:23:34.828Z,98894.03
2024-02-28T08:26:01.351Z,98908.22
2024-02-28T08:28:27.877Z,98901.66
2024-02-28T08:30:54.482Z,98900.66
2024-02-28T08:33:24.614Z,98901.31
2024-02-28T08:35:52.736Z,98896.75
2024-02-28T08:38:19.422Z,98893.00
2024-02-28T08:40:46.880Z,98893.28
2024-02-28T08:43:13.737Z,98905.34
2024-02-28T08:45:40.591Z,98905.94
2024-02-28T08:48:08.580Z,98912.00
2024-02-28T08:50:35.345Z,98912.50
2024-02-28T08:53:03.002Z,98921.41
2024-02-28T08:55:30.318Z,98921.94
2024-02-28T08:57:57.009Z,98930.00
2024-02-28T09:00:23.785Z,98933.78
2024-02-28T09:02:50.575Z,98939.44
2024-02-28T09:05:17.218Z,98946.75
2024-02-28T09:07:44.192Z,98965.19
2024-02-28T09:10:12.175Z,98974.38
2024-02-28T09:12:39.233Z,98978.31
2024-02-28T09:15:06.316Z,98981.03
2024-02-28T09:17:32.977Z,98979.75
2024-02-28T09:20:02.122Z,98993.56
2024-02-28T09:22:28.918Z,99000.53
2024-02-28T09:24:55.550Z,99013.47
2024-02-28T09:27:22.269Z,99019.53
2024-02-28T09:29:48.848Z,99012.72
2024-02-28T09:32:15.909Z,99013.59
2024-02-28T09:34:42.975Z,99019.47
2024-02-28T09:37:09.846Z,99023.66
2024-02-28T09:39:39.891Z,99016.66
2024-02-28T09:42:08.020Z,99013.75
2024-02-28T09:44:35.726Z,99011.97
2024-02-28T09:47:02.457Z,99017.06
2024-02-28T09:49:32.053Z,99021.59
2024-02-28T09:51:59.764Z,99025.97
2024-02-28T09:54:26.834Z,99024.44
2024-02-28T09:56:53.386Z,99028.94
2024-02-28T09:59:21.910Z,99025.31
2024-02-28T10:01:59.037Z,99020.22
2024-02-28T10:04:27.181Z,99028.88
2024-02-28T10:06:53.710Z,99033.81
2024-02-28T10:09:20.283Z,99033.84
2024-02-28T10:11:49.820Z,99024.03
2024-02-28T10:14:20.312Z,99036.28
2024-02-28T10:16:47.012Z,99037.69
2024-02-28T10:19:14.058Z,99046.50
2024-02-28T10:21:40.901Z,99051.44
2024-02-28T10:24:07.718Z,99045.91
2024-02-28T10:26:43.009Z,99044.41
2024-02-28T10:29:12.079Z,99044.97
2024-02-28T10:31:38.834Z,99057.06
2024-02-28T10:34:06.662Z,99055.78
2024-02-28T10:36:33.925Z,99056.34
2024-02-28T10:39:01.487Z,99056.16
2024-02-28T10:41:29.379Z,99057.88
2024-02-28T10:43:55.950Z,99063.38
2024-02-28T10:46:35.185Z,99068.78
2024-02-28T10:49:03.961Z,99074.78
2024-02-28T10:51:35.165Z,99073.81
2024-02-28T10:54:13.656Z,99071.72
2024-02-28T10:56:42.687Z,99076.53
2024-02-28T10:59:12.391Z,99077.63
2024-02-28T11:01:45.455Z,99079.41
2024-02-28T11:04:16.250Z,99070.53
2024-02-28T11:06:54.933Z,99064.72
2024-02-28T11:09:28.669Z,99050.25
2024-02-28T11:11:56.905Z,99065.09
2024-02-28T11:14:26.547Z,99056.09
2024-02-28T11:17:04.132Z,99047.94
2024-02-28T11:19:32.617Z,99053.78
2024-02-28T11:22:04.829Z,99046.75
2024-02-28T11:24:34.409Z,99048.66
2024-02-28T11:27:03.366Z,99044.50
2024-02-28T11:29:30.367Z,99041.78
2024-02-28T11:31:57.060Z,99029.78
2024-02-28T11:34:23.809Z,99034.75
2024-02-28T11:36:51.652Z,99029.53
2024-02-28T11:39:19.110Z,99038.41
2024-02-28T11:41:49.782Z,99042.41
2024-02-28T11:44:17.835Z,99038.88
2024-02-28T11:46:45.956Z,99028.94
2024-02-28T11:49:13.788Z,99033.00
2024-02-28T11:51:44.579Z,99026.81
2024-02-28T11:54:12.449Z,99022.56
2024-02-28T11:56:42.883Z,99019.22
2024-02-28T11:59:12.728Z,99018.25
2024-02-28T12:01:41.662Z,99018.06
2024-02-28T12:04:08.660Z,99012.28
2024-02-28T12:06:35.851Z,99014.94
2024-02-28T12:09:02.650Z,99007.75
2024-02-28T12:11:31.254Z,99003.47
2024-02-28T12:13:57.878Z,98991.31
2024-02-28T12:16:26.603Z,98999.97
2024-02-28T12:18:53.733Z,98990.28
2024-02-28T12:21:21.615Z,98989.53
2024-02-28T12:23:51.535Z,98982.56
2024-02-28T12:26:19.966Z,98981.50
2024-02-28T12:28:46.635Z,98979.06
2024-02-28T12:31:14.344Z,98971.13
2024-02-28T12:33:41.292Z,98958.94
2024-02-28T12:36:08.194Z,98966.63
2024-02-28T12:38:34.899Z,98967.66
2024-02-28T12:41:01.611Z,98956.50
2024-02-28T12:43:28.785Z,98954.75
2024-02-28T12:45:55.405Z,98953.16
2024-02-28T12:48:22.797Z,98951.03
2024-02-28T12:50:49.648Z,98946.13
2024-02-28T12:53:16.211Z,98958.84
2024-02-28T12:55:43.097Z,98942.91
2024-02-28T12:58:09.708Z,98946.16
2024-02-28T13:00:36.550Z,98944.50
2024-02-28T13:03:04.301Z,98943.78
2024-02-28T13:05:32.217Z,98932.91
2024-02-28T13:07:59.067Z,98945.47
2024-02-28T13:10:26.994Z,98931.09
2024-02-28T13:12:53.863Z,98928.69
2024-02-28T13:15:20.564Z,98930.28
2024-02-28T13:17:50.685Z,98921.53
2024-02-28T13:20:17.679Z,98917.41
2024-02-28T13:22:44.315Z,98921.19
2024-02-28T13:25:12.558Z,98915.88
2024-02-28T13:27:39.176Z,98911.75
2024-02-28T13:30:06.462Z,98919.44
2024-02-28T13:32:33.351Z,98921.63
2024-02-28T13:35:00.938Z,98916.56
2024-02-28T13:37:27.475Z,98921.22
2024-02-28T13:39:54.144Z,98915.44
2024-02-28T13:42:25.551Z,98912.78
2024-02-28T13:44:52.661Z,98904.88
2024-02-28T13:47:19.213Z,98900.19
2024-02-28T13:49:46.045Z,98901.38
2024-02-28T13:52:12.681Z,98897.00
2024-02-28T13:54:39.285Z,98892.78
2024-02-28T13:57:07.357Z,98894.13
2024-02-28T13:59:35.303Z,98890.81
2024-02-28T14:02:02.286Z,98905.13
2024-02-28T14:04:28.957Z,98900.03
2024-02-28T14:06:55.524Z,98892.53
2024-02-28T14:09:22.037Z,98892.66
2024-02-28T14:11:48.618Z,98883.25
2024-02-28T14:14:15.277Z,98888.38
2024-02-28T14:16:41.902Z,98883.81
2024-02-28T14:19:08.568Z,98884.66
2024-02-28T14:21:35.185Z,98883.09
2024-02-28T14:24:01.763Z,98886.09
2024-02-28T14:26:28.728Z,98880.94
2024-02-28T14:28:56.689Z,98881.00
2024-02-28T14:31:24.325Z,98884.03
2024-02-28T14:33:51.298Z,98876.91
2024-02-28T14:36:18.101Z,98879.94
2024-02-28T14:38:45.507Z,98879.75
2024-02-28T14:41:12.906Z,98881.97
2024-02-28T14:43:40.112Z,98879.63
2024-02-28T14:46:08.317Z,98878.25
2024-02-28T14:48:34.946Z,98872.81
2024-02-28T14:51:03.441Z,98868.81
2024-02-28T14:53:30.097Z,98878.63
2024-02-28T14:55:56.731Z,98875.97
2024-02-28T14:58:23.267Z,98877.75
2024-02-28T15:00:50.599Z,98877.44
2024-02-28T15:03:17.635Z,98877.00
2024-02-28T15:05:45.180Z,98878.72
2024-02-28T15:08:11.878Z,98879.16
2024-02-28T15:10:38.446Z,98882.22
2024-02-28T15:13:05.215Z,98886.00
2024-02-28T15:15:32.022Z,98878.75
2024-02-28T15:17:59.649Z,98881.59
2024-02-28T15:20:26.256Z,98884.44
2024-02-28T15:22:52.824Z,98881.41
2024-02-28T15:25:19.353Z,98871.03
2024-02-28T15:27:45.920Z,98878.91
2024-02-28T15:30:13.031Z,98884.72
2024-02-28T15:32:40.771Z,98881.72
2024-02-28T15:35:09.130Z,98881.56
2024-02-28T15:37:36.461Z,98877.59
2024-02-28T15:40:07.611Z,98882.84
2024-02-28T15:42:34.876Z,98876.69
2024-02-28T15:45:01.452Z,98880.38
2024-02-28T15:47:29.511Z,98883.47
2024-02-28T15:49:57.238Z,98883.75
2024-02-28T15:52:23.931Z,98881.34
2024-02-28T15:54:50.582Z,98885.28
2024-02-28T15:57:17.151Z,98885.97
2024-02-28T15:59:43.697Z,98877.31
2024-02-28T16:02:11.068Z,98881.75
2024-02-28T16:04:38.339Z,98883.97
2024-02-28T16:07:04.966Z,98881.41
2024-02-28T16:09:31.690Z,98884.84
2024-02-28T16:11:58.255Z,98882.59
2024-02-28T16:14:25.297Z,98886.22
2024-02-28T16:16:51.843Z,98887.34
2024-02-28T16:19:22.863Z,98888.19
2024-02-28T16:21:54.097Z,98881.16
2024-02-28T16:24:20.811Z,98878.53
2024-02-28T16:26:47.349Z,98883.59
2024-02-28T16:29:13.853Z,98881.97
2024-02-28T16:31:40.362Z,98882.47
2024-02-28T16:34:06.910Z,98888.34
2024-02-28T16:36:33.532Z,98890.13
2024-02-28T16:39:00.110Z,98883.97
2024-02-28T16:41:26.606Z,98887.22
2024-02-28T16:43:56.173Z,98884.59
2024-02-28T16:46:22.853Z,98884.94
2024-02-28T16:48:49.484Z,98882.94
2024-02-28T16:51:16.139Z,98892.41
2024-02-28T16:53:42.629Z,98894.22
2024-02-28T16:56:09.127Z,98885.69
2024-02-28T16:58:40.955Z,98893.25
2024-02-28T17:01:08.598Z,98900.72
2024-02-28T17:03:35.766Z,98904.84
2024-02-28T17:06:02.765Z,98897.00
2024-02-28T17:08:29.267Z,98906.25
2024-02-28T17:10:56.192Z,98912.66
2024-02-28T17:13:22.963Z,98913.31
2024-02-28T17:15:54.931Z,98919.53
2024-02-28T17:18:22.328Z,98921.34
2024-02-28T17:20:49.050Z,98925.16
2024-02-28T17:23:15.637Z,98924.25
2024-02-28T17:25:42.242Z,98927.25
2024-02-28T17:28:08.918Z,98928.03
2024-02-28T17:30:35.515Z,98934.16
2024-02-28T17:33:02.495Z,98932.47
2024-02-28T17:35:29.662Z,98935.94
2024-02-28T17:37:56.360Z,98934.59
2024-02-28T17:40:22.857Z,98930.84
2024-02-28T17:42:49.394Z,98933.81
2024-02-28T17:45:16.000Z,98928.91
2024-02-28T17:47:42.609Z,98928.09
2024-02-28T17:50:11.640Z,98928.31
2024-02-28T17:52:40.917Z,98933.06
2024-02-28T17:55:09.880Z,98930.16
2024-02-28T17:57:36.660Z,98932.63
2024-02-28T18:00:07.695Z,98932.97
2024-02-28T18:02:34.502Z,98926.72
2024-02-28T18:05:01.035Z,98932.78
2024-02-28T18:07:27.678Z,98936.06
2024-02-28T18:09:54.225Z,98935.72
2024-02-28T18:12:20.819Z,98928.16
2024-02-28T18:14:47.333Z,98937.63
2024-02-28T18:17:14.269Z,98929.56
2024-02-28T18:19:40.797Z,98933.06
2024-02-28T18:22:09.934Z,98930.44
2024-02-28T18:24:37.972Z,98930.59
2024-02-28T18:27:09.825Z,98932.19
2024-02-28T18:29:37.013Z,98933.59
2024-02-28T18:32:04.456Z,98938.63
2024-02-28T18:34:30.978Z,98930.94
2024-02-28T18:36:57.951Z,98929.84
2024-02-28T18:39:25.964Z,98931.34
2024-02-28T18:41:56.248Z,98929.97
2024-02-28T18:44:22.735Z,98930.09
2024-02-28T18:46:49.339Z,98927.22
2024-02-28T18:49:16.051Z,98934.50
2024-02-28T18:51:42.738Z,98930.66
2024-02-28T18:54:09.412Z,98924.78
2024-02-28T18:56:36.059Z,98929.16
2024-02-28T18:59:02.830Z,98928.06
2024-02-28T19:01:29.476Z,98924.47
2024-02-28T19:03:56.797Z,98929.31
2024-02-28T19:06:25.628Z,98923.69
2024-02-28T19:08:56.679Z,98926.28
2024-02-28T19:11:23.419Z,98923.81
2024-02-28T19:13:51.134Z,98933.97
2024-02-28T19:16:19.531Z,98921.44
2024-02-28T19:18:46.215Z,98916.03
2024-02-28T19:21:12.806Z,98920.50
2024-02-28T19:23:41.603Z,98929.16
2024-02-28T19:26:08.285Z,98929.97
2024-02-28T19:28:34.935Z,98929.56
2024-02-28T19:31:02.663Z,98933.56
2024-02-28T19:33:29.423Z,98933.81
2024-02-28T19:35:55.958Z,98934.22
2024-02-28T19:38:22.824Z,98934.50
2024-02-28T19:40:49.345Z,98939.44
2024-02-28T19:43:15.975Z,98947.13
2024-02-28T19:45:42.759Z,98939.28
2024-02-28T19:48:09.508Z,98950.13
2024-02-28T19:50:36.256Z,98951.06
2024-02-28T19:53:04.092Z,98944.06
2024-02-28T19:55:30.785Z,98944.47
2024-02-28T19:57:57.380Z,98947.59
2024-02-28T20:00:24.012Z,98948.53
2024-02-28T20:02:50.574Z,98947.81
2024-02-28T20:05:20.297Z,98952.50
2024-02-28T20:07:48.767Z,98959.75
2024-02-28T20:10:16.455Z,98954.38
2024-02-28T20:12:43.179Z,98949.34
2024-02-28T20:15:10.068Z,98946.19
2024-02-28T20:17:36.724Z,98942.19
2024-02-28T20:20:04.595Z,98938.53
2024-02-28T20:22:31.117Z,98937.28
2024-02-28T20:24:57.899Z,98929.09
2024-02-28T20:27:24.832Z,98924.59
2024-02-28T20:29:51.425Z,98914.88
2024-02-28T20:32:18.289Z,98913.41
2024-02-28T20:34:45.285Z,98909.38
2024-02-28T20:37:12.026Z,98912.41
2024-02-28T20:39:38.807Z,98918.63
2024-02-28T20:42:05.933Z,98909.44
2024-02-28T20:44:32.550Z,98909.72
2024-02-28T20:46:59.667Z,98918.34
2024-02-28T20:49:26.711Z,98910.97
2024-02-28T20:51:53.421Z,98905.19
2024-02-28T20:54:20.333Z,98901.38
2024-02-28T20:56:46.918Z,98899.41
2024-02-28T20:59:13.591Z,98900.06
2024-02-28T21:01:40.565Z,98894.59
2024-02-28T21:04:07.966Z,98898.44
2024-02-28T21:06:34.667Z,98897.88
2024-02-28T21:09:01.538Z,98895.53
2024-02-28T21:11:28.649Z,98900.56
2024-02-28T21:13:56.468Z,98893.00
2024-02-28T21:16:23.739Z,98899.53
2024-02-28T21:18:55.244Z,98892.22
2024-02-28T21:21:28.189Z,98884.72
2024-02-28T21:23:55.010Z,98877.81
2024-02-28T21:26:21.685Z,98861.72
2024-02-28T21:28:48.208Z,98857.94
2024-02-28T21:31:14.916Z,98858.75
2024-02-28T21:33:41.475Z,98854.66
2024-02-28T21:36:08.727Z,98849.16
2024-02-28T21:38:36.821Z,98852.41
2024-02-28T21:41:03.456Z,98846.25
2024-02-28T21:43:29.953Z,98843.34
2024-02-28T21:45:56.646Z,98854.75
2024-02-28T21:48:23.392Z,98847.94
2024-02-28T21:50:49.928Z,98846.72
2024-02-28T21:53:16.444Z,98847.84
2024-02-28T21:55:44.078Z,98839.56
2024-02-28T21:58:11.017Z,98837.03
2024-02-28T22:00:37.882Z,98839.22
2024-02-28T22:03:04.793Z,98831.91
2024-02-28T22:05:31.588Z,98833.91
2024-02-28T22:07:58.541Z,98837.06
2024-02-28T22:10:25.239Z,98837.91
2024-02-28T22:12:51.915Z,98837.03
2024-02-28T22:15:18.862Z,98830.31
2024-02-28T22:17:45.382Z,98829.81
2024-02-28T22:20:12.165Z,98826.41
2024-02-28T22:22:38.699Z,98833.16
2024-02-28T22:25:06.035Z,98827.66
2024-02-28T22:27:32.710Z,98824.47
2024-02-28T22:30:00.315Z,98819.16
2024-02-28T22:32:27.403Z,98813.47
2024-02-28T22:34:54.044Z,98819.25
2024-02-28T22:37:20.580Z,98818.09
2024-02-28T22:39:47.733Z,98827.88
2024-02-28T22:42:14.249Z,98823.88
2024-02-28T22:44:41.170Z,98818.22
2024-02-28T22:47:07.711Z,98822.59
2024-02-28T22:49:34.636Z,98817.19
2024-02-28T22:52:01.200Z,98807.97
2024-02-28T22:54:27.845Z,98799.97
2024-02-28T22:56:54.657Z,98807.53
2024-02-28T22:59:21.727Z,98801.25
2024-02-28T23:01:49.233Z,98796.41
2024-02-28T23:04:17.364Z,98799.94
2024-02-28T23:06:43.993Z,98797.94
2024-02-28T23:09:11.376Z,98791.34
2024-02-28T23:11:38.852Z,98792.06
2024-02-28T23:14:08.450Z,98793.94
2024-02-28T23:16:37.964Z,98793.72
2024-02-28T23:19:04.634Z,98784.41
2024-02-28T23:21:31.262Z,98783.94
2024-02-28T23:23:58.724Z,98778.63
2024-02-28T23:26:25.220Z,98773.06
2024-02-28T23:28:51.718Z,98767.78
2024-02-28T23:31:18.837Z,98765.66
2024-02-28T23:33:45.423Z,98770.44
2024-02-28T23:36:11.964Z,98777.91
2024-02-28T23:38:38.461Z,98769.28
2024-02-28T23:41:05.269Z,98779.22
2024-02-28T23:43:31.757Z,98766.34
2024-02-28T23:45:58.272Z,98779.44
2024-02-28T23:48:24.826Z,98776.25
2024-02-28T23:50:54.307Z,98769.19
2024-02-28T23:53:20.920Z,98773.44
2024-02-28T23:55:47.474Z,98781.81
2024-02-28T23:58:14.445Z,98777.44
